Time;durP1;ratioP1;P1;durP2;ratioP2;P2;SDS_P1;SDS_P2;PMS_P1;PMS_P2;Temp;Humidity;BMP_temperature;BMP_pressure;BME280_temperature;BME280_humidity;BME280_pressure;Samples;Min_cycle;Max_cycle;Signal;HPM_P1;HPM_P2
2023/06/30 00:00:15;;;;;;;;;;;;;;;18.02;100.00;98373.13;105544;1264;67174;-83
2023/06/30 00:02:46;;;;;;;;;;;;;;;18.00;100.00;98376.06;105561;1259;71308;-86
2023/06/30 00:05:14;;;;;;;;;;;;;;;17.95;100.00;98373.10;105836;1256;61795;-83
2023/06/30 00:07:45;;;;;;;;;;;;;;;17.93;100.00;98373.80;105886;1259;61288;-82
2023/06/30 00:10:12;;;;;;;;;;;;;;;17.74;100.00;98368.27;105805;1258;74495;-83
2023/06/30 00:12:40;;;;;;;;;;;;;;;17.81;100.00;98367.80;105849;1256;68637;-82
2023/06/30 00:15:07;;;;;;;;;;;;;;;17.79;100.00;98372.25;105791;1263;71391;-83
2023/06/30 00:17:35;;;;;;;;;;;;;;;17.75;100.00;98379.23;105755;1257;63903;-82
2023/06/30 00:20:05;;;;;;;;;;;;;;;17.73;100.00;98374.97;105654;1255;61306;-81
2023/06/30 00:22:35;;;;;;;;;;;;;;;17.78;100.00;98376.59;105767;1262;76811;-82
2023/06/30 00:25:03;;;;;;;;;;;;;;;17.76;100.00;98377.08;105883;1260;67480;-83
2023/06/30 00:27:31;;;;;;;;;;;;;;;17.75;100.00;98371.55;105766;1261;71402;-85
2023/06/30 00:29:59;;;;;;;;;;;;;;;17.73;100.00;98372.03;105809;1257;61319;-81
2023/06/30 00:32:31;;;;;;;;;;;;;;;17.76;100.00;98370.10;105837;1257;61212;-81
2023/06/30 00:34:59;;;;;;;;;;;;;;;17.78;100.00;98370.56;105770;1262;74525;-81
2023/06/30 00:37:26;;;;;;;;;;;;;;;17.79;100.00;98370.23;105783;1260;67101;-83
2023/06/30 00:39:54;;;;;;;;;;;;;;;17.77;100.00;98365.64;105841;1258;73240;-83
2023/06/30 00:42:23;;;;;;;;;;;;;;;17.71;100.00;98365.81;105975;1259;61668;-82
2023/06/30 00:44:53;;;;;;;;;;;;;;;17.56;100.00;98360.21;105877;1254;61288;-80
2023/06/30 00:47:20;;;;;;;;;;;;;;;17.57;100.00;98366.20;105947;1255;73434;-82
2023/06/30 00:49:52;;;;;;;;;;;;;;;17.48;100.00;98371.89;105877;1263;67369;-81
2023/06/30 00:52:19;;;;;;;;;;;;;;;17.63;100.00;98375.33;106061;1253;72636;-82
2023/06/30 00:54:46;;;;;;;;;;;;;;;17.68;100.00;98375.63;105924;1255;61547;-81
2023/06/30 00:57:15;;;;;;;;;;;;;;;17.72;100.00;98375.62;105850;1258;62500;-80
2023/06/30 00:59:42;;;;;;;;;;;;;;;17.81;100.00;98369.09;105848;1258;73537;-81
2023/06/30 01:02:11;;;;;;;;;;;;;;;17.94;100.00;98374.14;107842;1254;68521;-81
2023/06/30 01:04:48;;;;;;;;;;;;;;;17.90;100.00;98367.50;109278;1254;71105;-81
2023/06/30 01:07:34;;;;;;;;;;;;;;;17.78;100.00;98372.52;106534;1259;61083;-82
2023/06/30 01:10:10;;;;;;;;;;;;;;;17.79;100.00;98371.55;105976;1259;61144;-83
2023/06/30 01:12:38;;;;;;;;;;;;;;;17.83;100.00;98362.71;105921;1260;74517;-81
2023/06/30 01:15:09;;;;;;;;;;;;;;;17.80;100.00;98365.86;105833;1259;67208;-83
2023/06/30 01:17:41;;;;;;;;;;;;;;;17.77;100.00;98371.31;105894;1259;72350;-82
2023/06/30 01:20:11;;;;;;;;;;;;;;;17.75;100.00;98366.96;105892;1259;61665;-83
2023/06/30 01:22:40;;;;;;;;;;;;;;;17.98;100.00;98364.50;105880;1255;61157;-83
2023/06/30 01:25:09;;;;;;;;;;;;;;;17.97;100.00;98369.36;105937;1254;72816;-80
2023/06/30 01:27:40;;;;;;;;;;;;;;;18.00;100.00;98365.89;105932;1257;67738;-84
2023/06/30 01:30:08;;;;;;;;;;;;;;;17.99;100.00;98362.39;106008;1258;72580;-81
2023/06/30 01:32:37;;;;;;;;;;;;;;;18.06;100.00;98365.59;106169;1256;61195;-83
2023/06/30 01:35:04;;;;;;;;;;;;;;;18.03;100.00;98367.87;106024;1252;61427;-82
2023/06/30 01:37:32;;;;;;;;;;;;;;;18.10;100.00;98370.60;106295;1251;74490;-80
2023/06/30 01:39:59;;;;;;;;;;;;;;;18.15;100.00;98366.63;106181;1256;67596;-83
2023/06/30 01:42:27;;;;;;;;;;;;;;;18.16;100.00;98370.91;106295;1257;71062;-81
2023/06/30 01:44:54;;;;;;;;;;;;;;;18.13;100.00;98365.60;106189;1257;61416;-80
2023/06/30 01:47:22;;;;;;;;;;;;;;;18.20;100.00;98369.59;106091;1256;61346;-82
2023/06/30 01:49:49;;;;;;;;;;;;;;;18.16;100.00;98371.98;105873;1259;74656;-81
2023/06/30 01:52:17;;;;;;;;;;;;;;;18.18;100.00;98373.53;106190;1251;68729;-82
2023/06/30 01:54:45;;;;;;;;;;;;;;;18.17;100.00;98378.73;106075;1252;71951;-83
2023/06/30 01:57:12;;;;;;;;;;;;;;;18.19;100.00;98375.89;106120;1253;61567;-81
2023/06/30 01:59:39;;;;;;;;;;;;;;;18.21;100.00;98380.38;106051;1251;61339;-82
2023/06/30 02:02:07;;;;;;;;;;;;;;;18.12;100.00;98381.16;106178;1251;73429;-78
2023/06/30 02:04:34;;;;;;;;;;;;;;;18.04;100.00;98379.55;106152;1256;67104;-79
2023/06/30 02:07:02;;;;;;;;;;;;;;;18.06;100.00;98382.20;106130;1255;72526;-80
2023/06/30 02:09:29;;;;;;;;;;;;;;;18.00;100.00;98383.04;106141;1251;61494;-81
2023/06/30 02:12:14;;;;;;;;;;;;;;;18.09;100.00;98384.08;106140;1257;61979;-81
2023/06/30 02:14:41;;;;;;;;;;;;;;;18.07;100.00;98388.04;106181;1256;74507;-79
2023/06/30 02:17:10;;;;;;;;;;;;;;;18.02;100.00;98390.41;106195;1266;67248;-79
2023/06/30 02:19:37;;;;;;;;;;;;;;;17.32;100.00;98388.76;106179;1254;72325;-82
2023/06/30 02:22:05;;;;;;;;;;;;;;;17.38;100.00;98384.30;106144;1251;62359;-81
2023/06/30 02:24:32;;;;;;;;;;;;;;;17.33;100.00;98390.98;106165;1256;61338;-82
2023/06/30 02:27:00;;;;;;;;;;;;;;;17.58;100.00;98387.92;106178;1251;74537;-81
2023/06/30 02:29:31;;;;;;;;;;;;;;;17.72;100.00;98393.99;106051;1256;67572;-84
2023/06/30 02:31:58;;;;;;;;;;;;;;;17.83;100.00;98392.81;105849;1254;72526;-83
2023/06/30 02:34:26;;;;;;;;;;;;;;;17.73;100.00;98393.27;105909;1254;61590;-80
2023/06/30 02:36:53;;;;;;;;;;;;;;;17.54;100.00;98391.14;106001;1254;61208;-84
2023/06/30 02:39:21;;;;;;;;;;;;;;;17.59;100.00;98385.48;106121;1257;74530;-80
2023/06/30 02:41:48;;;;;;;;;;;;;;;17.73;100.00;98388.00;106051;1257;67218;-82
2023/06/30 02:44:15;;;;;;;;;;;;;;;17.80;100.00;98384.53;105876;1259;72502;-82
2023/06/30 02:46:43;;;;;;;;;;;;;;;17.85;100.00;98387.59;105909;1257;61638;-85
2023/06/30 02:49:10;;;;;;;;;;;;;;;17.92;100.00;98392.08;105987;1260;61154;-80
2023/06/30 02:51:38;;;;;;;;;;;;;;;18.06;100.00;98393.19;105879;1258;74532;-81
2023/06/30 02:54:05;;;;;;;;;;;;;;;18.21;100.00;98397.63;105918;1258;67187;-81
2023/06/30 02:56:33;;;;;;;;;;;;;;;18.31;100.00;98399.95;106001;1254;72408;-81
2023/06/30 02:59:00;;;;;;;;;;;;;;;18.42;100.00;98393.10;105873;1258;61213;-81
2023/06/30 03:01:28;;;;;;;;;;;;;;;18.48;100.00;98394.72;106029;1253;61337;-80
2023/06/30 03:03:56;;;;;;;;;;;;;;;18.47;100.00;98395.07;105975;1254;73030;-78
2023/06/30 03:06:26;;;;;;;;;;;;;;;18.52;100.00;98395.10;105984;1255;68855;-85
2023/06/30 03:08:53;;;;;;;;;;;;;;;18.54;100.00;98391.52;106567;1254;72000;-80
2023/06/30 03:11:25;;;;;;;;;;;;;;;18.63;100.00;98390.35;106190;1257;61155;-83
2023/06/30 03:13:53;;;;;;;;;;;;;;;18.70;100.00;98388.81;105943;1255;61327;-84
2023/06/30 03:16:22;;;;;;;;;;;;;;;18.77;100.00;98388.16;105831;1258;74684;-84
2023/06/30 03:18:49;;;;;;;;;;;;;;;18.90;100.00;98389.74;106059;1256;68226;-81
2023/06/30 03:21:16;;;;;;;;;;;;;;;18.96;100.00;98392.90;105882;1257;72604;-85
2023/06/30 03:23:45;;;;;;;;;;;;;;;19.11;100.00;98389.11;105897;1254;61289;-81
2023/06/30 03:26:14;;;;;;;;;;;;;;;19.37;100.00;98390.96;105918;1260;61617;-80
2023/06/30 03:28:42;;;;;;;;;;;;;;;19.58;100.00;98391.30;105849;1257;76718;-82
2023/06/30 03:31:10;;;;;;;;;;;;;;;19.83;100.00;98395.07;105875;1254;68787;-84
2023/06/30 03:33:38;;;;;;;;;;;;;;;19.86;100.00;98391.79;105854;1257;71294;-82
2023/06/30 03:36:07;;;;;;;;;;;;;;;19.81;100.00;98389.17;105785;1254;61722;-81
2023/06/30 03:38:34;;;;;;;;;;;;;;;19.75;100.00;98389.67;106029;1254;61147;-83
2023/06/30 03:41:02;;;;;;;;;;;;;;;19.88;100.00;98395.20;105853;1254;74638;-83
2023/06/30 03:43:31;;;;;;;;;;;;;;;19.95;100.00;98395.56;105792;1254;69134;-83
2023/06/30 03:46:00;;;;;;;;;;;;;;;20.15;100.00;98392.96;105889;1257;71483;-85
2023/06/30 03:48:28;;;;;;;;;;;;;;;20.39;100.00;98394.63;105826;1254;61291;-84
2023/06/30 03:50:55;;;;;;;;;;;;;;;20.34;100.00;98397.02;105958;1254;61397;-79
2023/06/30 03:53:23;;;;;;;;;;;;;;;20.57;100.00;98402.63;105847;1253;74695;-85
2023/06/30 03:55:51;;;;;;;;;;;;;;;20.53;100.00;98404.40;105835;1257;67628;-82
2023/06/30 03:58:19;;;;;;;;;;;;;;;20.75;100.00;98400.48;105768;1260;72753;-84
2023/06/30 04:00:47;;;;;;;;;;;;;;;20.95;100.00;98395.99;105793;1254;61337;-85
2023/06/30 04:03:14;;;;;;;;;;;;;;;21.17;100.00;98399.13;105903;1253;61310;-83
2023/06/30 04:05:42;;;;;;;;;;;;;;;21.06;100.00;98401.10;105846;1254;73725;-82
2023/06/30 04:08:10;;;;;;;;;;;;;;;21.30;100.00;98401.92;108669;1254;68317;-80
2023/06/30 04:10:38;;;;;;;;;;;;;;;21.65;100.00;98405.73;109264;1252;72087;-83
2023/06/30 04:13:06;;;;;;;;;;;;;;;21.76;100.00;98398.98;105855;1254;61363;-83
2023/06/30 04:15:33;;;;;;;;;;;;;;;21.81;100.00;98395.42;105850;1255;61153;-85
2023/06/30 04:18:01;;;;;;;;;;;;;;;21.73;100.00;98392.67;105833;1257;74537;-82
2023/06/30 04:20:28;;;;;;;;;;;;;;;21.84;100.00;98394.31;105906;1254;68318;-84
2023/06/30 04:22:56;;;;;;;;;;;;;;;22.05;100.00;98398.52;105846;1257;72555;-82
2023/06/30 04:25:23;;;;;;;;;;;;;;;22.36;100.00;98404.48;105919;1254;61600;-83
2023/06/30 04:27:51;;;;;;;;;;;;;;;22.49;100.00;98408.73;105900;1255;61183;-82
2023/06/30 04:30:18;;;;;;;;;;;;;;;22.36;100.00;98401.83;105869;1254;74838;-80
2023/06/30 04:32:46;;;;;;;;;;;;;;;22.15;100.00;98400.59;106080;1255;68594;-83
2023/06/30 04:35:14;;;;;;;;;;;;;;;22.55;100.00;98402.52;105853;1257;72571;-87
2023/06/30 04:37:42;;;;;;;;;;;;;;;22.41;98.72;98402.75;105926;1254;61558;-88
2023/06/30 04:40:10;;;;;;;;;;;;;;;21.86;100.00;98399.19;106181;1254;62585;-83
2023/06/30 04:42:37;;;;;;;;;;;;;;;22.25;100.00;98400.35;106123;1256;74531;-82
2023/06/30 04:45:05;;;;;;;;;;;;;;;22.40;99.81;98404.65;106025;1253;67886;-79
2023/06/30 04:47:33;;;;;;;;;;;;;;;22.53;100.00;98403.65;105990;1254;71238;-80
2023/06/30 04:50:00;;;;;;;;;;;;;;;22.92;98.44;98411.50;105951;1257;61359;-81
2023/06/30 04:52:28;;;;;;;;;;;;;;;23.05;95.00;98411.96;105904;1258;62063;-83
2023/06/30 04:54:56;;;;;;;;;;;;;;;23.32;92.64;98407.42;105885;1254;73437;-81
2023/06/30 04:57:23;;;;;;;;;;;;;;;23.61;91.57;98409.13;105781;1254;67764;-79
2023/06/30 04:59:54;;;;;;;;;;;;;;;23.66;87.48;98405.84;105849;1260;71678;-81
2023/06/30 05:02:21;;;;;;;;;;;;;;;23.57;88.42;98410.70;105926;1255;61588;-82
2023/06/30 05:04:49;;;;;;;;;;;;;;;23.48;87.99;98411.02;105843;1260;61439;-78
2023/06/30 05:07:16;;;;;;;;;;;;;;;23.54;87.35;98407.69;105912;1259;73373;-84
2023/06/30 05:09:46;;;;;;;;;;;;;;;23.56;87.44;98403.41;105947;1255;68376;-77
2023/06/30 05:12:14;;;;;;;;;;;;;;;23.60;87.75;98402.00;105941;1255;72751;-83
2023/06/30 05:14:42;;;;;;;;;;;;;;;23.93;84.98;98410.24;106012;1254;62201;-79
2023/06/30 05:17:10;;;;;;;;;;;;;;;24.28;82.13;98413.11;105627;1254;176233;-81
2023/06/30 05:19:38;;;;;;;;;;;;;;;24.43;78.87;98418.25;105910;1254;74568;-89
2023/06/30 05:22:06;;;;;;;;;;;;;;;24.30;80.89;98416.59;106056;1260;67588;-83
2023/06/30 05:24:33;;;;;;;;;;;;;;;24.45;79.90;98420.39;105986;1256;72561;-80
2023/06/30 05:27:01;;;;;;;;;;;;;;;25.06;76.49;98423.49;106063;1258;62798;-81
2023/06/30 05:29:28;;;;;;;;;;;;;;;25.20;73.57;98420.81;106274;1254;61379;-86
2023/06/30 05:31:56;;;;;;;;;;;;;;;24.83;73.97;98417.38;106024;1255;74548;-82
2023/06/30 05:34:23;;;;;;;;;;;;;;;24.59;76.67;98421.67;105936;1253;67286;-82
2023/06/30 05:36:51;;;;;;;;;;;;;;;24.81;76.32;98418.61;105862;1260;71444;-82
2023/06/30 05:39:18;;;;;;;;;;;;;;;25.19;73.30;98421.89;105978;1253;61314;-83
2023/06/30 05:41:46;;;;;;;;;;;;;;;25.16;71.89;98418.41;106179;1253;61338;-88
2023/06/30 05:44:14;;;;;;;;;;;;;;;25.24;70.91;98425.40;107084;1253;73691;-84
2023/06/30 05:46:42;;;;;;;;;;;;;;;25.36;70.30;98421.17;106322;1257;67137;-80
2023/06/30 05:49:09;;;;;;;;;;;;;;;25.30;70.71;98422.63;105957;1253;72558;-81
2023/06/30 05:51:37;;;;;;;;;;;;;;;25.51;68.43;98420.60;106046;1257;61660;-78
2023/06/30 05:54:04;;;;;;;;;;;;;;;25.47;68.26;98420.40;106004;1254;61400;-83
2023/06/30 05:56:32;;;;;;;;;;;;;;;25.57;67.81;98414.84;106148;1256;74642;-80
2023/06/30 05:58:59;;;;;;;;;;;;;;;25.57;66.79;98409.65;106018;1253;67447;-83
2023/06/30 06:01:27;;;;;;;;;;;;;;;25.60;66.85;98411.63;105930;1253;72607;-81
2023/06/30 06:03:55;;;;;;;;;;;;;;;25.88;67.04;98415.04;105934;1253;61343;-85
2023/06/30 06:06:23;;;;;;;;;;;;;;;26.32;63.19;98419.84;106172;1257;59183;-81
2023/06/30 06:08:50;;;;;;;;;;;;;;;26.26;61.84;98426.18;105919;1253;74568;-82
2023/06/30 06:11:18;;;;;;;;;;;;;;;26.11;61.78;98429.48;105866;1254;68220;-81
2023/06/30 06:13:45;;;;;;;;;;;;;;;25.80;64.13;98433.84;105828;1257;71125;-81
2023/06/30 06:16:13;;;;;;;;;;;;;;;25.66;65.52;98434.45;105914;1257;61359;-81
2023/06/30 06:18:40;;;;;;;;;;;;;;;25.94;65.37;98440.85;105976;1254;61401;-79
2023/06/30 06:21:08;;;;;;;;;;;;;;;26.13;64.85;98442.55;106096;1257;74565;-79
2023/06/30 06:23:35;;;;;;;;;;;;;;;26.12;63.96;98439.32;105979;1254;68942;-82
2023/06/30 06:26:03;;;;;;;;;;;;;;;26.59;63.19;98445.58;105927;1254;71189;-83
2023/06/30 06:28:30;;;;;;;;;;;;;;;26.43;61.96;98441.66;105915;1253;61315;-79
2023/06/30 06:30:57;;;;;;;;;;;;;;;26.32;61.75;98438.16;105923;1258;61359;-84
2023/06/30 06:33:25;;;;;;;;;;;;;;;26.47;61.76;98445.28;106000;1257;74494;-80
2023/06/30 06:35:52;;;;;;;;;;;;;;;26.38;61.59;98440.93;105969;1257;68667;-81
2023/06/30 06:38:20;;;;;;;;;;;;;;;26.44;62.73;98433.65;105981;1254;72609;-79
2023/06/30 06:40:47;;;;;;;;;;;;;;;26.60;62.90;98445.67;105997;1253;61359;-82
2023/06/30 06:43:15;;;;;;;;;;;;;;;26.92;61.22;98444.05;106025;1257;61257;-81
2023/06/30 06:45:44;;;;;;;;;;;;;;;27.36;59.08;98444.83;106010;1253;73371;-83
2023/06/30 06:48:19;;;;;;;;;;;;;;;27.44;57.58;98444.13;105966;1253;68286;-82
2023/06/30 06:50:47;;;;;;;;;;;;;;;27.26;59.42;98443.80;106013;1258;70869;-82
2023/06/30 06:53:21;;;;;;;;;;;;;;;27.14;58.73;98447.39;106008;1253;61322;-79
2023/06/30 06:55:49;;;;;;;;;;;;;;;26.77;59.98;98440.39;106164;1253;61305;-84
2023/06/30 06:58:18;;;;;;;;;;;;;;;27.18;58.19;98443.70;106089;1253;76519;-83
2023/06/30 07:00:46;;;;;;;;;;;;;;;27.19;56.24;98449.52;106119;1256;67317;-82
2023/06/30 07:03:14;;;;;;;;;;;;;;;27.13;57.78;98446.92;105994;1254;72324;-81
2023/06/30 07:05:43;;;;;;;;;;;;;;;27.18;57.77;98450.16;106016;1253;61322;-83
2023/06/30 07:08:11;;;;;;;;;;;;;;;27.22;56.97;98451.83;106042;1257;61257;-83
2023/06/30 07:10:39;;;;;;;;;;;;;;;27.33;57.05;98460.34;106145;1257;74631;-83
2023/06/30 07:13:07;;;;;;;;;;;;;;;27.28;57.02;98457.42;106096;1254;67165;-84
2023/06/30 07:15:36;;;;;;;;;;;;;;;27.54;54.59;98456.33;106641;1253;71708;-86
2023/06/30 07:18:03;;;;;;;;;;;;;;;27.82;53.39;98460.66;109553;1253;59311;-81
2023/06/30 07:20:31;;;;;;;;;;;;;;;27.31;55.39;98459.52;108275;1254;61332;-84
2023/06/30 07:22:59;;;;;;;;;;;;;;;27.81;55.19;98458.20;106129;1253;73156;-83
2023/06/30 07:25:27;;;;;;;;;;;;;;;28.11;53.07;98457.39;106162;1254;68293;-79
2023/06/30 07:27:56;;;;;;;;;;;;;;;28.19;50.96;98450.58;106141;1254;72686;-86
2023/06/30 07:30:24;;;;;;;;;;;;;;;28.29;49.84;98459.70;106371;1253;61237;-76
2023/06/30 07:32:52;;;;;;;;;;;;;;;27.98;50.12;98453.95;106276;1251;61394;-81
2023/06/30 07:35:19;;;;;;;;;;;;;;;27.62;50.58;98453.56;106564;1256;74497;-74
2023/06/30 07:37:47;;;;;;;;;;;;;;;27.76;50.30;98457.89;106203;1257;67352;-85
2023/06/30 07:40:17;;;;;;;;;;;;;;;27.99;49.68;98460.73;106269;1256;71439;-86
2023/06/30 07:42:48;;;;;;;;;;;;;;;28.19;49.92;98459.65;106255;1257;61202;-81
2023/06/30 07:45:16;;;;;;;;;;;;;;;28.31;49.23;98459.14;106221;1251;61279;-86
2023/06/30 07:47:44;;;;;;;;;;;;;;;27.87;48.62;98456.31;106226;1256;74659;-88
2023/06/30 07:50:13;;;;;;;;;;;;;;;28.07;49.47;98459.67;106190;1251;68237;-78
2023/06/30 07:52:47;;;;;;;;;;;;;;;28.53;49.52;98460.58;105992;1260;71112;-80
2023/06/30 07:55:16;;;;;;;;;;;;;;;28.55;47.16;98464.44;106130;1251;61400;-83
2023/06/30 07:57:44;;;;;;;;;;;;;;;28.49;47.91;98458.47;106236;1257;61189;-80
2023/06/30 08:00:15;;;;;;;;;;;;;;;28.57;47.87;98463.33;106052;1251;74831;-82
2023/06/30 08:02:43;;;;;;;;;;;;;;;28.86;47.68;98458.68;106437;1251;68855;-80
2023/06/30 08:05:10;;;;;;;;;;;;;;;29.08;46.79;98461.96;106257;1251;74966;-80
2023/06/30 08:07:38;;;;;;;;;;;;;;;28.97;45.37;98463.66;106513;1254;61342;-79
2023/06/30 08:10:16;;;;;;;;;;;;;;;28.90;45.21;98461.18;106543;1251;61301;-86
2023/06/30 08:12:44;;;;;;;;;;;;;;;28.79;45.80;98459.20;106341;1251;74564;-84
2023/06/30 08:15:11;;;;;;;;;;;;;;;28.57;46.86;98453.55;106574;1251;68319;-82
2023/06/30 08:17:39;;;;;;;;;;;;;;;28.59;47.57;98454.33;106579;1253;72393;-79
2023/06/30 08:20:24;;;;;;;;;;;;;;;28.48;47.91;98453.42;106430;1256;61258;-85
2023/06/30 08:22:54;;;;;;;;;;;;;;;28.50;48.54;98450.19;106083;1257;61305;-85
2023/06/30 08:25:23;;;;;;;;;;;;;;;28.47;48.52;98449.63;106338;1253;74766;-81
2023/06/30 08:27:51;;;;;;;;;;;;;;;28.73;47.51;98452.44;106189;1253;68372;-86
2023/06/30 08:30:18;;;;;;;;;;;;;;;29.00;47.07;98451.83;106222;1253;71869;-81
2023/06/30 08:32:50;;;;;;;;;;;;;;;29.25;45.67;98455.55;106255;1257;61144;-82
2023/06/30 08:35:18;;;;;;;;;;;;;;;29.14;45.34;98457.12;106177;1253;61113;-82
2023/06/30 08:37:46;;;;;;;;;;;;;;;29.52;45.78;98461.89;106215;1257;74807;-76
2023/06/30 08:40:20;;;;;;;;;;;;;;;29.93;44.81;98467.95;106219;1257;67451;-82
2023/06/30 08:42:48;;;;;;;;;;;;;;;29.81;43.82;98464.59;106213;1256;71485;-79
2023/06/30 08:45:15;;;;;;;;;;;;;;;29.76;44.15;98461.39;106354;1256;61232;-82
2023/06/30 08:47:43;;;;;;;;;;;;;;;29.66;44.54;98462.02;106324;1253;61241;-87
2023/06/30 08:50:11;;;;;;;;;;;;;;;29.04;44.78;98462.70;108261;1253;73533;-86
2023/06/30 08:52:39;;;;;;;;;;;;;;;28.88;45.89;98462.63;106467;1257;69834;-83
2023/06/30 08:55:08;;;;;;;;;;;;;;;29.13;46.48;98466.65;106787;1253;71273;-83
2023/06/30 08:57:35;;;;;;;;;;;;;;;29.69;44.51;98469.12;107569;1257;61237;-85
2023/06/30 09:00:04;;;;;;;;;;;;;;;29.84;44.00;98469.05;106761;1254;61388;-79
2023/06/30 09:02:32;;;;;;;;;;;;;;;27.24;47.71;98456.45;106099;1253;73484;-86
2023/06/30 09:04:59;;;;;;;;;;;;;;;26.86;50.59;98456.05;106283;1253;68696;-83
2023/06/30 09:07:27;;;;;;;;;;;;;;;27.07;52.23;98460.59;106322;1257;71433;-84
2023/06/30 09:10:00;;;;;;;;;;;;;;;26.71;53.43;98461.59;106237;1257;61346;-85
2023/06/30 09:12:28;;;;;;;;;;;;;;;26.40;53.72;98464.13;106288;1257;61231;-83
2023/06/30 09:14:58;;;;;;;;;;;;;;;26.53;53.45;98462.24;106489;1253;73806;-86
2023/06/30 09:17:27;;;;;;;;;;;;;;;26.79;53.39;98453.45;106082;1253;68176;-80
2023/06/30 09:19:55;;;;;;;;;;;;;;;26.87;52.81;98461.09;106011;1253;72348;-81
2023/06/30 09:22:22;;;;;;;;;;;;;;;26.74;55.32;98464.27;106008;1253;61353;-86
2023/06/30 09:25:27;;;;;;;;;;;;;;;26.60;56.06;98461.80;106209;1253;61250;-80
2023/06/30 09:27:55;;;;;;;;;;;;;;;26.71;52.35;98458.45;106157;1253;74147;-81
2023/06/30 09:30:32;;;;;;;;;;;;;;;26.71;50.67;98455.86;106337;1253;68770;-90
2023/06/30 09:33:02;;;;;;;;;;;;;;;26.41;50.99;98459.49;105804;1260;72717;-84
2023/06/30 09:35:52;;;;;;;;;;;;;;;26.28;52.36;98450.71;105297;1264;61387;-86
2023/06/30 09:38:21;;;;;;;;;;;;;;;26.47;52.52;98452.53;105440;1264;61917;-88
2023/06/30 09:40:49;;;;;;;;;;;;;;;26.73;49.83;98455.01;105587;1264;74629;-79
2023/06/30 09:43:17;;;;;;;;;;;;;;;26.64;49.72;98450.89;106072;1264;67696;-87
2023/06/30 09:45:53;;;;;;;;;;;;;;;26.81;50.00;98452.19;105563;1269;71870;-87
2023/06/30 09:48:20;;;;;;;;;;;;;;;26.51;51.64;98449.33;105203;1267;61384;-82
2023/06/30 09:50:51;;;;;;;;;;;;;;;26.42;52.44;98444.95;105150;1264;61371;-85
2023/06/30 09:53:19;;;;;;;;;;;;;;;26.27;51.44;98445.84;105675;1267;73436;-89
2023/06/30 09:55:48;;;;;;;;;;;;;;;26.27;51.95;98448.83;105803;1263;67618;-88
2023/06/30 09:58:17;;;;;;;;;;;;;;;26.14;52.16;98444.67;105611;1265;72891;-85
2023/06/30 10:00:45;;;;;;;;;;;;;;;26.21;47.75;98440.70;105750;1262;61273;-85
2023/06/30 10:03:32;;;;;;;;;;;;;;;26.23;47.75;98442.66;105440;1267;61161;-83
2023/06/30 10:06:02;;;;;;;;;;;;;;;26.35;49.72;98436.67;105756;1259;74556;-81
2023/06/30 10:08:32;;;;;;;;;;;;;;;26.71;48.70;98434.55;105871;1259;68362;-82
2023/06/30 10:11:02;;;;;;;;;;;;;;;27.27;47.63;98424.34;105752;1259;72748;-88
2023/06/30 10:13:30;;;;;;;;;;;;;;;27.13;44.73;98426.77;105711;1259;61365;-86
2023/06/30 10:16:01;;;;;;;;;;;;;;;26.76;44.56;98427.56;105651;1259;61215;-87
2023/06/30 10:18:33;;;;;;;;;;;;;;;26.47;45.80;98425.17;106011;1259;73664;-81
2023/06/30 10:21:04;;;;;;;;;;;;;;;26.48;46.18;98421.71;105910;1259;68808;-83
2023/06/30 10:23:31;;;;;;;;;;;;;;;26.80;45.33;98424.74;107460;1261;71493;-81
2023/06/30 10:26:00;;;;;;;;;;;;;;;27.08;44.52;98421.48;108110;1263;61223;-81
2023/06/30 10:28:28;;;;;;;;;;;;;;;27.44;44.58;98415.15;108894;1259;58830;-84
2023/06/30 10:30:56;;;;;;;;;;;;;;;27.85;44.86;98406.06;106182;1256;76553;-87
2023/06/30 10:33:24;;;;;;;;;;;;;;;27.86;44.06;98405.65;106045;1256;69032;-87
2023/06/30 10:35:53;;;;;;;;;;;;;;;28.06;43.22;98419.26;106430;1253;73101;-83
2023/06/30 10:38:27;;;;;;;;;;;;;;;28.25;43.36;98413.98;106135;1253;62084;-87
2023/06/30 10:41:18;;;;;;;;;;;;;;;27.67;43.03;98408.05;106129;1253;62077;-85
2023/06/30 10:44:05;;;;;;;;;;;;;;;27.22;43.24;98409.00;106031;1253;73408;-78
2023/06/30 10:46:59;;;;;;;;;;;;;;;26.99;42.98;98395.77;106836;1252;67221;-82
2023/06/30 10:49:29;;;;;;;;;;;;;;;27.28;42.70;98403.73;105765;1257;72540;-81
2023/06/30 10:51:58;;;;;;;;;;;;;;;27.35;42.43;98408.63;105895;1256;61167;-86
2023/06/30 10:54:31;;;;;;;;;;;;;;;27.43;41.72;98403.34;105740;1256;61277;-89
2023/06/30 10:57:08;;;;;;;;;;;;;;;27.23;43.67;98398.63;105768;1256;73395;-82
2023/06/30 10:59:39;;;;;;;;;;;;;;;27.20;44.35;98394.29;105834;1256;68386;-84
2023/06/30 11:02:13;;;;;;;;;;;;;;;27.35;44.30;98392.80;106115;1257;72251;-81
2023/06/30 11:04:42;;;;;;;;;;;;;;;27.68;42.65;98386.70;106181;1256;61211;-83
2023/06/30 11:07:11;;;;;;;;;;;;;;;27.66;42.33;98383.33;106040;1256;61354;-82
2023/06/30 11:09:48;;;;;;;;;;;;;;;27.64;42.36;98385.06;105965;1260;74715;-84
2023/06/30 11:12:15;;;;;;;;;;;;;;;28.07;41.99;98389.48;106122;1259;67141;-83
2023/06/30 11:14:55;;;;;;;;;;;;;;;28.24;41.46;98388.61;106019;1256;71425;-83
2023/06/30 11:17:23;;;;;;;;;;;;;;;28.28;39.66;98380.08;106205;1256;61317;-81
2023/06/30 11:19:57;;;;;;;;;;;;;;;28.16;39.58;98387.39;105917;1256;61143;-80
2023/06/30 11:22:25;;;;;;;;;;;;;;;28.52;39.22;98387.16;106805;1255;75442;-81
2023/06/30 11:24:55;;;;;;;;;;;;;;;28.50;39.06;98376.53;106484;1257;67863;-84
2023/06/30 11:27:22;;;;;;;;;;;;;;;28.64;39.24;98376.30;106119;1258;71207;-87
2023/06/30 11:29:50;;;;;;;;;;;;;;;28.68;39.30;98374.30;106314;1256;61178;-84
2023/06/30 11:32:29;;;;;;;;;;;;;;;28.50;40.32;98373.29;106706;1256;61190;-83
2023/06/30 11:34:58;;;;;;;;;;;;;;;27.75;41.49;98365.03;106292;1253;74548;-82
2023/06/30 11:37:27;;;;;;;;;;;;;;;27.80;41.21;98364.97;106293;1256;67221;-83
2023/06/30 11:39:56;;;;;;;;;;;;;;;27.96;39.47;98357.04;106179;1257;73667;-87
2023/06/30 11:42:24;;;;;;;;;;;;;;;28.13;39.49;98359.65;106181;1253;62235;-82
2023/06/30 11:44:52;;;;;;;;;;;;;;;28.09;39.95;98357.30;106176;1257;61338;-87
2023/06/30 11:47:19;;;;;;;;;;;;;;;27.79;40.66;98357.15;105918;1258;74948;-84
2023/06/30 11:49:50;;;;;;;;;;;;;;;27.86;41.36;98355.42;105990;1253;71496;-88
2023/06/30 11:52:18;;;;;;;;;;;;;;;28.03;41.41;98347.48;106011;1258;73636;-85
2023/06/30 11:54:47;;;;;;;;;;;;;;;28.21;40.87;98349.61;107184;1253;61443;-80
2023/06/30 11:57:15;;;;;;;;;;;;;;;28.28;38.64;98352.25;106801;1253;61426;-86
2023/06/30 11:59:43;;;;;;;;;;;;;;;28.30;38.51;98347.04;106025;1257;74612;-82
2023/06/30 12:02:11;;;;;;;;;;;;;;;28.10;39.20;98343.36;106085;1253;68256;-85
2023/06/30 12:04:44;;;;;;;;;;;;;;;27.76;40.16;98348.58;106286;1256;71377;-86
2023/06/30 12:07:13;;;;;;;;;;;;;;;27.31;41.38;98335.03;105987;1256;61933;-85
2023/06/30 12:09:41;;;;;;;;;;;;;;;27.34;41.60;98346.27;105997;1256;61336;-80
2023/06/30 12:12:09;;;;;;;;;;;;;;;27.75;40.69;98334.48;105820;1260;74843;-83
2023/06/30 12:14:40;;;;;;;;;;;;;;;27.86;40.26;98348.39;105825;1256;67691;-83
2023/06/30 12:17:09;;;;;;;;;;;;;;;27.96;41.23;98347.42;105947;1256;71418;-80
2023/06/30 12:19:37;;;;;;;;;;;;;;;28.27;40.44;98346.19;105783;1263;61276;-88
2023/06/30 12:22:11;;;;;;;;;;;;;;;28.43;39.03;98345.34;106046;1256;61433;-84
2023/06/30 12:24:42;;;;;;;;;;;;;;;28.49;38.26;98346.17;105814;1258;74544;-86
2023/06/30 12:27:09;;;;;;;;;;;;;;;28.59;38.28;98343.29;106099;1260;69793;-89
2023/06/30 12:29:38;;;;;;;;;;;;;;;28.79;38.86;98341.50;106067;1256;72623;-86
2023/06/30 12:32:13;;;;;;;;;;;;;;;28.77;38.88;98345.60;105764;1259;62675;-82
2023/06/30 12:34:42;;;;;;;;;;;;;;;28.49;39.49;98344.35;106046;1260;61215;-88
2023/06/30 12:37:11;;;;;;;;;;;;;;;28.43;39.57;98345.17;106010;1253;73839;-84
2023/06/30 12:39:38;;;;;;;;;;;;;;;28.62;40.17;98351.39;105927;1253;68232;-84
2023/06/30 12:42:07;;;;;;;;;;;;;;;28.84;40.72;98343.66;106059;1253;73818;-85